Pagrindinis puslapis
METAR-TAF:

METAR-TAF

Oro uostai :

Luksoras, Egiptas

platuma: 25-40N, ilguma: 032-42E, Aukštis: 93 m

Dabartinis oras

Ataskaita buvo paskelbta 1 valandą ir 28 minutes, ne 05:00 UTC
Vėjas 3 kt iš Pietų
Temperatūra 14°C
Drėgmė 67%
Slėgis 1017 hPa
Matomumas: 6000 m

METAR: HELX 020500Z 18003KT 6000 NSC 14/08 Q1017 NOSIG

Laikas: 08:28 (06:28 UTC)

Prognozė

Ataskaita buvo paskelbta 1 valandą ir 28 minutes, ne 05:00 UTC
Prognozė galioja nuo 02 metu 06 UTC su 03 metu 12 UTC
Vėjas 14 kt iš Šiaurės Vakarų
Matomumas 10 km arba daugiau
nėra debesų žemiau 1500 m ir nėra kamuolinių lietaus debesų
Laikinai
nuo 02 metu 06 UTC su 02 metu 09 UTC
Vėjas 3 kt nuo kintamojo kryptimis
Matomumas: 4000 m
migla

TAF: HELX 020500Z 0206/0312 31014KT CAVOK TEMPO 0206/0209 VRB03KT 4000 HZ NSC

Orai ataskaitas ir orų prognozės (METAR, TAF).

turimą stotys yra geltonos ir raudonos taškus žemėlapyje.

Perkelti pele per norėdami pamatyti stoties vardą.

Tada spustelėkite, norėdami matyti oro stebėjimo ir prognozės.

Norėdami pakeisti žemėlapį: spustelėkite ant žalios mygtukų su juodo kryžiaus žemyn,; žalią mygtuką su brūkšneliu, jei norite nutolinti; arba žalių rodyklių gretimoms žemėlapius.


METAR-TAF: